createdAt,value
2017-10-18T00:00:32.845Z,13.06
2017-10-18T00:03:01.944Z,13.10
2017-10-18T00:05:30.267Z,13.13
2017-10-18T00:08:00.103Z,13.16
2017-10-18T00:10:39.001Z,13.20
2017-10-18T00:13:07.505Z,13.24
2017-10-18T00:15:35.825Z,13.27
2017-10-18T00:18:04.926Z,13.31
2017-10-18T00:20:34.055Z,13.34
2017-10-18T00:23:02.367Z,13.36
2017-10-18T00:25:30.678Z,13.39
2017-10-18T00:27:59.781Z,13.41
2017-10-18T00:30:28.873Z,13.44
2017-10-18T00:32:57.203Z,13.46
2017-10-18T00:35:25.519Z,13.51
2017-10-18T00:37:53.938Z,13.53
2017-10-18T00:40:22.289Z,13.56
2017-10-18T00:42:51.988Z,13.58
2017-10-18T00:45:25.381Z,13.61
2017-10-18T00:47:53.874Z,13.63
2017-10-18T00:50:22.349Z,13.65
2017-10-18T00:52:52.097Z,13.68
2017-10-18T00:55:21.175Z,13.70
2017-10-18T00:57:49.511Z,13.71
2017-10-18T01:00:17.859Z,13.73
2017-10-18T01:02:46.933Z,13.75
2017-10-18T01:05:15.291Z,13.78
2017-10-18T01:07:43.601Z,13.80
2017-10-18T01:10:12.019Z,13.81
2017-10-18T01:12:40.417Z,13.83
2017-10-18T01:15:09.103Z,13.86
2017-10-18T01:17:37.461Z,13.87
2017-10-18T01:20:06.533Z,13.89
2017-10-18T01:22:34.889Z,13.92
2017-10-18T01:25:03.225Z,13.92
2017-10-18T01:27:32.318Z,13.94
2017-10-18T01:30:00.631Z,13.95
2017-10-18T01:32:28.988Z,13.97
2017-10-18T01:34:58.077Z,13.99
2017-10-18T01:37:26.399Z,14.00
2017-10-18T01:39:54.737Z,14.01
2017-10-18T01:42:23.074Z,14.02
2017-10-18T01:44:51.397Z,14.04
2017-10-18T01:47:19.729Z,14.04
2017-10-18T01:49:48.053Z,14.06
2017-10-18T01:52:16.377Z,14.09
2017-10-18T01:54:44.704Z,14.09
2017-10-18T01:57:13.043Z,14.10
2017-10-18T01:59:41.381Z,14.12
2017-10-18T02:02:09.721Z,14.12
2017-10-18T02:04:38.045Z,14.13
2017-10-18T02:07:06.366Z,14.15
2017-10-18T02:09:34.749Z,14.16
2017-10-18T02:12:03.182Z,14.16
2017-10-18T02:14:31.511Z,14.16
2017-10-18T02:16:59.825Z,14.16
2017-10-18T02:19:28.135Z,14.15
2017-10-18T02:21:56.450Z,14.16
2017-10-18T02:24:25.528Z,14.16
2017-10-18T02:26:53.856Z,14.19
2017-10-18T02:29:22.202Z,14.19
2017-10-18T02:31:51.282Z,14.19
2017-10-18T02:34:19.587Z,14.18
2017-10-18T02:36:48.674Z,14.18
2017-10-18T02:39:17.773Z,14.20
2017-10-18T02:41:46.878Z,14.20
2017-10-18T02:44:15.950Z,14.20
2017-10-18T02:46:44.268Z,14.20
2017-10-18T02:49:12.576Z,14.20
2017-10-18T02:51:40.894Z,14.20
2017-10-18T02:54:09.201Z,14.21
2017-10-18T02:56:38.289Z,14.23
2017-10-18T02:59:06.908Z,14.24
2017-10-18T03:01:35.245Z,14.26
2017-10-18T03:04:03.582Z,14.27
2017-10-18T03:06:31.907Z,14.28
2017-10-18T03:09:00.252Z,14.28
2017-10-18T03:11:28.684Z,14.29
2017-10-18T03:13:56.993Z,14.27
2017-10-18T03:16:25.320Z,14.26
2017-10-18T03:18:53.639Z,14.25
2017-10-18T03:21:22.731Z,14.25
2017-10-18T03:23:51.840Z,14.24
2017-10-18T03:26:20.929Z,14.24
2017-10-18T03:28:49.891Z,14.22
2017-10-18T03:31:18.940Z,14.23
2017-10-18T03:33:47.266Z,14.25
2017-10-18T03:36:15.581Z,14.26
2017-10-18T03:38:44.680Z,14.28
2017-10-18T03:41:13.010Z,14.27
2017-10-18T03:43:41.330Z,14.27
2017-10-18T03:46:09.672Z,14.28
2017-10-18T03:48:37.988Z,14.28
2017-10-18T03:51:07.085Z,14.28
2017-10-18T03:53:35.390Z,14.27
2017-10-18T03:56:04.492Z,14.26
2017-10-18T03:58:32.840Z,14.26
2017-10-18T04:01:01.172Z,14.26
2017-10-18T04:03:29.494Z,14.27
2017-10-18T04:05:57.810Z,14.27
2017-10-18T04:08:26.194Z,14.27
2017-10-18T04:10:54.516Z,14.29
2017-10-18T04:13:22.814Z,14.29
2017-10-18T04:15:51.121Z,14.30
2017-10-18T04:18:19.455Z,14.32
2017-10-18T04:20:47.758Z,14.32
2017-10-18T04:23:16.080Z,14.33
2017-10-18T04:25:44.408Z,14.34
2017-10-18T04:28:12.712Z,14.35
2017-10-18T04:30:41.038Z,14.35
2017-10-18T04:33:09.332Z,14.36
2017-10-18T04:35:37.665Z,14.36
2017-10-18T04:38:06.752Z,14.39
2017-10-18T04:40:35.068Z,14.39
2017-10-18T04:43:03.380Z,14.39
2017-10-18T04:45:32.571Z,14.41
2017-10-18T04:48:00.884Z,14.41
2017-10-18T04:50:29.260Z,14.41
2017-10-18T04:52:57.599Z,14.42
2017-10-18T04:55:25.893Z,14.43
2017-10-18T04:57:54.205Z,14.45
2017-10-18T05:00:22.576Z,14.46
2017-10-18T05:02:50.923Z,14.47
2017-10-18T05:05:19.221Z,14.48
2017-10-18T05:07:47.568Z,14.47
2017-10-18T05:10:16.638Z,14.49
2017-10-18T05:12:44.936Z,14.51
2017-10-18T05:15:14.040Z,14.51
2017-10-18T05:17:42.352Z,14.52
2017-10-18T05:20:10.650Z,14.53
2017-10-18T05:22:38.960Z,14.54
2017-10-18T05:25:07.262Z,14.54
2017-10-18T05:27:35.594Z,14.55
2017-10-18T05:30:03.908Z,14.58
2017-10-18T05:32:32.210Z,14.59
2017-10-18T05:35:00.528Z,14.62
2017-10-18T05:37:28.850Z,14.62
2017-10-18T05:39:57.224Z,14.65
2017-10-18T05:42:25.538Z,14.67
2017-10-18T05:44:53.866Z,14.67
2017-10-18T05:47:22.995Z,14.70
2017-10-18T05:49:51.315Z,14.72
2017-10-18T05:52:20.428Z,14.72
2017-10-18T05:54:49.972Z,14.73
2017-10-18T05:57:18.296Z,14.74
2017-10-18T05:59:46.654Z,14.76
2017-10-18T06:02:14.957Z,14.77
2017-10-18T06:04:43.260Z,14.79
2017-10-18T06:07:11.589Z,14.80
2017-10-18T06:09:40.558Z,14.81
2017-10-18T06:12:08.845Z,14.83
2017-10-18T06:14:37.166Z,14.85
2017-10-18T06:17:05.468Z,14.86
2017-10-18T06:19:34.532Z,14.89
2017-10-18T06:22:02.868Z,14.89
2017-10-18T06:24:31.176Z,14.91
2017-10-18T06:26:59.496Z,14.90
2017-10-18T06:29:27.795Z,14.91
2017-10-18T06:31:56.870Z,14.90
2017-10-18T06:34:25.187Z,14.89
2017-10-18T06:36:54.288Z,14.88
2017-10-18T06:39:22.590Z,14.87
2017-10-18T06:41:50.916Z,14.84
2017-10-18T06:44:19.222Z,14.81
2017-10-18T06:46:48.347Z,14.78
2017-10-18T06:49:16.671Z,14.74
2017-10-18T06:51:45.560Z,14.72
2017-10-18T06:54:13.898Z,14.69
2017-10-18T06:56:42.244Z,14.69
2017-10-18T06:59:10.557Z,14.67
2017-10-18T07:01:38.853Z,14.67
2017-10-18T07:04:10.694Z,14.67
2017-10-18T07:06:39.772Z,14.66
2017-10-18T07:09:08.096Z,14.65
2017-10-18T07:11:36.403Z,14.65
2017-10-18T07:14:04.717Z,14.66
2017-10-18T07:16:33.029Z,14.67
2017-10-18T07:19:01.339Z,14.68
2017-10-18T07:21:29.675Z,14.69
2017-10-18T07:23:58.867Z,14.71
2017-10-18T07:26:27.176Z,14.75
2017-10-18T07:28:55.471Z,14.77
2017-10-18T07:31:23.775Z,14.80
2017-10-18T07:33:52.069Z,14.81
2017-10-18T07:36:20.409Z,14.83
2017-10-18T07:38:48.708Z,14.86
2017-10-18T07:41:17.117Z,14.86
2017-10-18T07:43:45.444Z,14.88
2017-10-18T07:46:14.547Z,14.90
2017-10-18T07:48:44.193Z,14.94
2017-10-18T07:51:12.508Z,14.97
2017-10-18T07:53:43.250Z,15.00
2017-10-18T07:56:11.548Z,15.03
2017-10-18T07:58:39.853Z,15.05
2017-10-18T08:01:08.182Z,15.09
2017-10-18T08:03:37.256Z,15.14
2017-10-18T08:06:05.553Z,15.18
2017-10-18T08:08:33.887Z,15.22
2017-10-18T08:11:02.185Z,15.26
2017-10-18T08:13:30.510Z,15.31
2017-10-18T08:15:58.838Z,15.37
2017-10-18T08:18:27.154Z,15.42
2017-10-18T08:20:55.502Z,15.47
2017-10-18T08:23:23.827Z,15.51
2017-10-18T08:25:52.135Z,15.58
2017-10-18T08:28:21.236Z,15.64
2017-10-18T08:30:50.305Z,15.71
2017-10-18T08:33:18.611Z,15.77
2017-10-18T08:35:47.771Z,15.82
2017-10-18T08:38:16.063Z,15.86
2017-10-18T08:40:44.376Z,15.89
2017-10-18T08:43:13.446Z,15.92
2017-10-18T08:45:41.781Z,15.94
2017-10-18T08:48:10.087Z,15.96
2017-10-18T08:50:38.420Z,15.98
2017-10-18T08:53:06.786Z,15.99
2017-10-18T08:55:35.123Z,16.02
2017-10-18T08:58:03.445Z,16.05
2017-10-18T09:00:31.801Z,16.10
2017-10-18T09:03:00.125Z,16.12
2017-10-18T09:05:28.431Z,16.15
2017-10-18T09:07:57.516Z,16.17
2017-10-18T09:10:26.602Z,16.20
2017-10-18T09:12:54.908Z,16.22
2017-10-18T09:15:23.985Z,16.26
2017-10-18T09:17:52.314Z,16.29
2017-10-18T09:20:20.629Z,16.32
2017-10-18T09:22:48.933Z,16.34
2017-10-18T09:25:17.258Z,16.38
2017-10-18T09:27:45.550Z,16.40
2017-10-18T09:30:13.871Z,16.43
2017-10-18T09:32:42.215Z,16.48
2017-10-18T09:35:10.555Z,16.51
2017-10-18T09:37:39.633Z,16.54
2017-10-18T09:40:08.599Z,16.57
2017-10-18T09:42:36.939Z,16.62
2017-10-18T09:45:05.255Z,16.65
2017-10-18T09:47:33.571Z,16.69
2017-10-18T09:50:01.905Z,16.72
2017-10-18T09:52:30.222Z,16.76
2017-10-18T09:54:58.605Z,16.79
2017-10-18T09:57:26.912Z,16.83
2017-10-18T09:59:55.237Z,16.87
2017-10-18T10:02:23.600Z,16.90
2017-10-18T10:04:51.945Z,16.95
2017-10-18T10:07:20.273Z,16.99
2017-10-18T10:09:48.585Z,17.03
2017-10-18T10:12:16.904Z,17.06
2017-10-18T10:14:45.224Z,17.07
2017-10-18T10:17:14.186Z,17.11
2017-10-18T10:19:42.521Z,17.16
2017-10-18T10:22:10.838Z,17.18
2017-10-18T10:24:39.165Z,17.20
2017-10-18T10:27:07.482Z,17.23
2017-10-18T10:29:35.816Z,17.27
2017-10-18T10:32:04.123Z,17.31
2017-10-18T10:34:32.431Z,17.33
2017-10-18T10:37:00.758Z,17.40
2017-10-18T10:39:29.851Z,17.46
2017-10-18T10:41:58.957Z,17.53
2017-10-18T10:44:27.868Z,17.60
2017-10-18T10:46:56.254Z,17.64
2017-10-18T10:49:24.554Z,17.69
2017-10-18T10:51:52.898Z,17.73
2017-10-18T10:54:21.220Z,17.79
2017-10-18T10:56:49.548Z,17.86
2017-10-18T10:59:18.641Z,17.94
2017-10-18T11:01:46.972Z,18.02
2017-10-18T11:04:15.309Z,18.07
2017-10-18T11:06:43.628Z,18.15
2017-10-18T11:09:11.948Z,18.25
2017-10-18T11:11:40.259Z,18.33
2017-10-18T11:14:09.348Z,18.40
2017-10-18T11:16:37.675Z,18.51
2017-10-18T11:19:05.984Z,18.56
2017-10-18T11:21:34.316Z,18.66
2017-10-18T11:24:02.627Z,18.72
2017-10-18T11:26:30.938Z,18.82
2017-10-18T11:28:59.269Z,18.88
2017-10-18T11:31:27.572Z,18.94
2017-10-18T11:33:55.875Z,19.01
2017-10-18T11:36:24.190Z,19.12
2017-10-18T11:38:53.264Z,19.20
2017-10-18T11:41:21.579Z,19.27
2017-10-18T11:43:51.361Z,19.35
2017-10-18T11:46:19.683Z,19.42
2017-10-18T11:48:48.005Z,19.49
2017-10-18T11:51:16.316Z,19.57
2017-10-18T11:53:44.612Z,19.61
2017-10-18T11:56:13.722Z,19.67
2017-10-18T11:58:42.815Z,19.75
2017-10-18T12:01:11.888Z,19.80
2017-10-18T12:03:40.217Z,19.87
2017-10-18T12:06:08.524Z,19.93
2017-10-18T12:08:36.831Z,19.98
2017-10-18T12:11:05.182Z,20.01
2017-10-18T12:13:33.515Z,20.02
2017-10-18T12:16:01.856Z,20.02
2017-10-18T12:18:30.170Z,20.05
2017-10-18T12:20:58.482Z,20.06
2017-10-18T12:23:26.919Z,20.07
2017-10-18T12:25:55.236Z,20.08
2017-10-18T12:28:24.329Z,20.07
2017-10-18T12:30:53.410Z,20.09
2017-10-18T12:33:21.715Z,20.10
2017-10-18T12:35:50.774Z,20.12
2017-10-18T12:38:19.082Z,20.13
2017-10-18T12:40:47.387Z,20.13
2017-10-18T12:43:15.728Z,20.14
2017-10-18T12:45:44.066Z,20.12
2017-10-18T12:48:12.398Z,20.09
2017-10-18T12:50:40.805Z,20.07
2017-10-18T12:53:09.901Z,20.06
2017-10-18T12:55:38.971Z,20.04
2017-10-18T12:58:07.288Z,20.04
2017-10-18T13:00:36.369Z,20.04
2017-10-18T13:03:04.705Z,20.03
2017-10-18T13:05:33.043Z,20.01
2017-10-18T13:08:02.116Z,20.03
2017-10-18T13:10:30.432Z,20.00
2017-10-18T13:12:59.519Z,19.95
2017-10-18T13:15:27.834Z,19.97
2017-10-18T13:17:56.154Z,19.95
2017-10-18T13:20:24.500Z,19.96
2017-10-18T13:22:52.817Z,20.02
2017-10-18T13:25:21.140Z,20.07
2017-10-18T13:27:50.222Z,20.11
2017-10-18T13:30:18.537Z,20.14
2017-10-18T13:32:46.860Z,20.17
2017-10-18T13:35:15.178Z,20.19
2017-10-18T13:37:44.279Z,20.20
2017-10-18T13:40:13.358Z,20.22
2017-10-18T13:42:41.671Z,20.22
2017-10-18T13:45:10.776Z,20.22
2017-10-18T13:47:39.079Z,20.23
2017-10-18T13:50:07.407Z,20.24
2017-10-18T13:52:35.718Z,20.27
2017-10-18T13:55:04.036Z,20.28
2017-10-18T13:57:32.401Z,20.28
2017-10-18T14:00:00.735Z,20.29
2017-10-18T14:02:29.045Z,20.30
2017-10-18T14:04:58.144Z,20.32
2017-10-18T14:07:26.459Z,20.34
2017-10-18T14:09:54.766Z,20.39
2017-10-18T14:12:23.074Z,20.43
2017-10-18T14:14:52.162Z,20.44
2017-10-18T14:17:20.487Z,20.43
2017-10-18T14:19:48.795Z,20.44
2017-10-18T14:22:17.106Z,20.48
2017-10-18T14:24:45.416Z,20.49
2017-10-18T14:27:13.768Z,20.49
2017-10-18T14:29:42.099Z,20.47
2017-10-18T14:32:10.402Z,20.47
2017-10-18T14:34:38.734Z,20.49
2017-10-18T14:37:07.805Z,20.50
2017-10-18T14:39:36.118Z,20.49
2017-10-18T14:42:05.214Z,20.49
2017-10-18T14:44:34.301Z,20.46
2017-10-18T14:47:02.627Z,20.45
2017-10-18T14:49:30.940Z,20.45
2017-10-18T14:51:59.256Z,20.46
2017-10-18T14:54:28.349Z,20.46
2017-10-18T14:56:57.456Z,20.44
2017-10-18T14:59:26.556Z,20.40
2017-10-18T15:01:55.653Z,20.34
2017-10-18T15:04:24.724Z,20.29
2017-10-18T15:07:14.341Z,20.25
2017-10-18T15:09:42.662Z,20.20
2017-10-18T15:12:10.983Z,20.16
2017-10-18T15:14:43.439Z,20.13
2017-10-18T15:17:14.004Z,20.14
2017-10-18T15:19:42.451Z,20.13
2017-10-18T15:22:10.753Z,20.12
2017-10-18T15:24:39.847Z,20.11
2017-10-18T15:27:08.179Z,20.10
2017-10-18T15:29:36.913Z,20.07
2017-10-18T15:32:07.870Z,20.05
2017-10-18T15:34:37.027Z,20.01
2017-10-18T15:37:05.338Z,19.98
2017-10-18T15:39:33.669Z,19.96
2017-10-18T15:42:02.050Z,19.92
2017-10-18T15:44:30.372Z,19.88
2017-10-18T15:46:58.687Z,19.85
2017-10-18T15:49:27.811Z,19.82
2017-10-18T15:51:56.137Z,19.78
2017-10-18T15:54:24.431Z,19.77
2017-10-18T15:56:52.752Z,19.74
2017-10-18T15:59:21.062Z,19.70
2017-10-18T16:01:49.424Z,19.69
2017-10-18T16:04:17.743Z,19.66
2017-10-18T16:06:46.061Z,19.67
2017-10-18T16:09:15.157Z,19.66
2017-10-18T16:11:44.225Z,19.65
2017-10-18T16:14:12.536Z,19.64
2017-10-18T16:16:41.618Z,19.61
2017-10-18T16:19:09.995Z,19.58
2017-10-18T16:21:38.374Z,19.53
2017-10-18T16:24:06.702Z,19.47
2017-10-18T16:26:35.003Z,19.43
2017-10-18T16:29:03.317Z,19.39
2017-10-18T16:31:31.653Z,19.35
2017-10-18T16:33:59.955Z,19.32
2017-10-18T16:36:28.294Z,19.30
2017-10-18T16:38:57.362Z,19.26
2017-10-18T16:41:25.755Z,19.22
2017-10-18T16:43:54.064Z,19.19
2017-10-18T16:46:22.374Z,19.18
2017-10-18T16:48:50.711Z,19.15
2017-10-18T16:51:19.790Z,19.13
2017-10-18T16:53:48.129Z,19.08
2017-10-18T16:56:16.439Z,19.03
2017-10-18T16:58:44.762Z,18.98
2017-10-18T17:01:13.838Z,18.96
2017-10-18T17:03:42.149Z,18.95
2017-10-18T17:06:11.218Z,18.94
2017-10-18T17:08:39.543Z,18.90
2017-10-18T17:11:07.880Z,18.86
2017-10-18T17:13:36.232Z,18.84
2017-10-18T17:16:04.734Z,18.80
2017-10-18T17:18:33.083Z,18.79
2017-10-18T17:21:01.382Z,18.74
2017-10-18T17:23:29.684Z,18.70
2017-10-18T17:25:58.038Z,18.68
2017-10-18T17:28:26.327Z,18.65
2017-10-18T17:30:54.644Z,18.62
2017-10-18T17:33:22.982Z,18.52
2017-10-18T17:35:51.294Z,18.46
2017-10-18T17:38:19.671Z,18.42
2017-10-18T17:40:48.892Z,18.39
2017-10-18T17:43:17.211Z,18.37
2017-10-18T17:45:45.603Z,18.33
2017-10-18T17:48:13.904Z,18.30
2017-10-18T17:50:42.217Z,18.25
2017-10-18T17:53:10.533Z,18.24
2017-10-18T17:55:38.846Z,18.21
2017-10-18T17:58:07.170Z,18.15
2017-10-18T18:00:35.988Z,18.12
2017-10-18T18:03:05.103Z,18.10
2017-10-18T18:05:33.429Z,18.06
2017-10-18T18:08:01.757Z,18.00
2017-10-18T18:10:30.064Z,17.93
2017-10-18T18:12:58.381Z,17.90
2017-10-18T18:15:26.703Z,17.89
2017-10-18T18:17:55.017Z,17.86
2017-10-18T18:20:23.342Z,17.83
2017-10-18T18:22:51.649Z,17.81
2017-10-18T18:25:19.965Z,17.77
2017-10-18T18:27:48.296Z,17.74
2017-10-18T18:30:17.373Z,17.70
2017-10-18T18:32:45.711Z,17.66
2017-10-18T18:35:14.029Z,17.58
2017-10-18T18:37:42.335Z,17.52
2017-10-18T18:40:11.564Z,17.50
2017-10-18T18:42:39.883Z,17.49
2017-10-18T18:45:08.203Z,17.46
2017-10-18T18:47:37.310Z,17.45
2017-10-18T18:50:06.384Z,17.44
2017-10-18T18:52:34.779Z,17.44
2017-10-18T18:55:03.101Z,17.41
2017-10-18T18:57:31.410Z,17.41
2017-10-18T18:59:59.756Z,17.41
2017-10-18T19:02:28.094Z,17.41
2017-10-18T19:04:56.425Z,17.40
2017-10-18T19:07:25.483Z,17.43
2017-10-18T19:09:53.798Z,17.45
2017-10-18T19:12:22.187Z,17.42
2017-10-18T19:14:50.498Z,17.50
2017-10-18T19:17:18.824Z,17.56
2017-10-18T19:19:47.903Z,17.52
2017-10-18T19:22:16.223Z,17.50
2017-10-18T19:24:44.537Z,17.48
2017-10-18T19:27:12.857Z,17.47
2017-10-18T19:29:41.170Z,17.46
2017-10-18T19:32:09.475Z,17.45
2017-10-18T19:34:37.815Z,17.42
2017-10-18T19:37:06.882Z,17.40
2017-10-18T19:39:38.376Z,17.38
2017-10-18T19:42:06.745Z,17.37
2017-10-18T19:44:35.827Z,17.38
2017-10-18T19:47:04.132Z,17.39
2017-10-18T19:49:33.223Z,17.40
2017-10-18T19:52:02.296Z,17.39
2017-10-18T19:54:30.621Z,17.37
2017-10-18T19:56:58.947Z,17.37
2017-10-18T19:59:27.265Z,17.37
2017-10-18T20:01:56.352Z,17.36
2017-10-18T20:04:24.662Z,17.36
2017-10-18T20:06:53.767Z,17.35
2017-10-18T20:09:22.101Z,17.33
2017-10-18T20:11:50.469Z,17.31
2017-10-18T20:14:18.786Z,17.29
2017-10-18T20:16:47.097Z,17.29
2017-10-18T20:19:15.421Z,17.29
2017-10-18T20:21:43.738Z,17.29
2017-10-18T20:24:12.809Z,17.29
2017-10-18T20:26:41.131Z,17.30
2017-10-18T20:29:10.293Z,17.31
2017-10-18T20:31:38.639Z,17.30
2017-10-18T20:34:06.966Z,17.29
2017-10-18T20:36:35.300Z,17.27
2017-10-18T20:39:03.639Z,17.27
2017-10-18T20:41:31.948Z,17.24
2017-10-18T20:44:00.249Z,17.23
2017-10-18T20:46:28.544Z,17.21
2017-10-18T20:48:56.856Z,17.21
2017-10-18T20:51:25.184Z,17.19
2017-10-18T20:53:53.501Z,17.18
2017-10-18T20:56:21.838Z,17.15
2017-10-18T20:58:50.440Z,17.13
2017-10-18T21:01:18.875Z,17.13
2017-10-18T21:03:51.555Z,17.13
2017-10-18T21:06:21.455Z,17.13
2017-10-18T21:08:49.843Z,17.13
2017-10-18T21:11:18.949Z,17.16
2017-10-18T21:13:47.278Z,17.15
2017-10-18T21:16:15.588Z,17.14
2017-10-18T21:18:44.059Z,17.16
2017-10-18T21:21:12.367Z,17.18
2017-10-18T21:23:40.694Z,17.16
2017-10-18T21:26:09.770Z,17.14
2017-10-18T21:28:38.084Z,17.13
2017-10-18T21:31:07.178Z,17.12
2017-10-18T21:33:36.258Z,17.11
2017-10-18T21:36:04.581Z,17.10
2017-10-18T21:38:32.886Z,17.10
2017-10-18T21:41:01.206Z,17.09
2017-10-18T21:43:30.320Z,17.10
2017-10-18T21:45:59.382Z,17.10
2017-10-18T21:48:27.707Z,17.09
2017-10-18T21:50:56.791Z,17.09
2017-10-18T21:53:25.121Z,17.08
2017-10-18T21:55:53.426Z,17.08
2017-10-18T21:58:21.760Z,17.09
2017-10-18T22:00:50.069Z,17.08
2017-10-18T22:03:18.375Z,17.08
2017-10-18T22:05:46.694Z,17.10
2017-10-18T22:08:15.781Z,17.10
2017-10-18T22:10:44.099Z,17.09
2017-10-18T22:13:12.541Z,17.09
2017-10-18T22:15:41.634Z,17.09
2017-10-18T22:18:09.978Z,17.09
2017-10-18T22:20:38.293Z,17.11
2017-10-18T22:23:06.612Z,17.11
2017-10-18T22:25:34.926Z,17.11
2017-10-18T22:28:03.268Z,17.12
2017-10-18T22:30:31.573Z,17.13
2017-10-18T22:32:59.895Z,17.14
2017-10-18T22:35:28.197Z,17.13
2017-10-18T22:37:56.521Z,17.14
2017-10-18T22:40:24.830Z,17.16
2017-10-18T22:42:53.142Z,17.17
2017-10-18T22:45:22.227Z,17.16
2017-10-18T22:47:50.555Z,17.15
2017-10-18T22:50:18.883Z,17.17
2017-10-18T22:52:47.183Z,17.15
2017-10-18T22:55:15.507Z,17.16
2017-10-18T22:57:43.821Z,17.17
2017-10-18T23:00:12.211Z,17.17
2017-10-18T23:02:40.514Z,17.14
2017-10-18T23:05:08.819Z,17.13
2017-10-18T23:07:37.125Z,17.12
2017-10-18T23:10:05.448Z,17.12
2017-10-18T23:12:33.771Z,17.11
2017-10-18T23:15:02.106Z,17.10
2017-10-18T23:17:31.174Z,17.09
2017-10-18T23:19:59.481Z,17.08
2017-10-18T23:22:27.789Z,17.09
2017-10-18T23:24:56.863Z,17.07
2017-10-18T23:27:25.182Z,17.06
2017-10-18T23:29:53.530Z,17.05
2017-10-18T23:32:21.832Z,17.03
2017-10-18T23:34:50.247Z,17.03
2017-10-18T23:37:18.565Z,17.00
2017-10-18T23:39:46.879Z,16.98
2017-10-18T23:42:15.957Z,16.94
2017-10-18T23:44:44.279Z,16.91
2017-10-18T23:47:12.603Z,16.91
2017-10-18T23:49:40.955Z,16.88
2017-10-18T23:52:09.267Z,16.87
2017-10-18T23:54:37.592Z,16.84
2017-10-18T23:57:06.657Z,16.82
2017-10-18T23:59:34.978Z,16.79
